KCRG

Jacksonville Executive at Craig Airport

Jacksonville, Florida, USA
METAR KCRG 232153Z 11012KT 10SM CLR 26/18 A3031 RMK AO2 SLP262 T02560178
Observed Flight Rules
Feb-23 @ 21:53 UTC (42 minutes ago) Visual Flight Rules
Wind Visibility Clouds
110° at 12 knots 10 miles
  • Clear skies
Temperatures Readings
Current 26°C / 79°F
Dewpoint 18°C / 64°F
Humidity 61%
Altimeter 30.31" Hg
Pressure 1026.2 hPa
Elevation 13
METAR KCRG 232153Z 11012KT 10SM CLR 26/18 A3031 RMK AO2 SLP262 T02560178
Observed Flight Rules
Feb-23 @ 21:53 UTC
(42 minutes ago)
VFR
Wind Visibility
110° at 12 knots 10 miles
Clouds
  • Clear skies
Temperature Dewpoint
26°C / 79°F 18°C / 64°F
Humidity Altimeter Pressure
61% 30.31" Hg 1026.2 hPa